createdAt,value
2018-04-01T00:00:07.176Z,2.35
2018-04-01T00:02:32.879Z,3.10
2018-04-01T00:04:59.207Z,1.67
2018-04-01T00:07:24.928Z,1.85
2018-04-01T00:09:53.410Z,2.27
2018-04-01T00:12:19.111Z,1.60
2018-04-01T00:14:48.614Z,2.10
2018-04-01T00:17:14.319Z,1.62
2018-04-01T00:19:43.094Z,1.87
2018-04-01T00:22:08.787Z,1.48
2018-04-01T00:24:37.308Z,1.50
2018-04-01T00:27:03.029Z,1.58
2018-04-01T00:29:28.737Z,1.30
2018-04-01T00:31:55.372Z,1.50
2018-04-01T00:34:21.076Z,1.75
2018-04-01T00:36:49.733Z,1.53
2018-04-01T00:39:15.431Z,1.70
2018-04-01T00:41:43.961Z,1.60
2018-04-01T00:44:09.692Z,2.03
2018-04-01T00:49:06.102Z,2.15
2018-04-01T00:51:35.428Z,2.37
2018-04-01T00:54:01.144Z,1.85
2018-04-01T00:56:29.991Z,2.90
2018-04-01T00:58:55.678Z,1.80
2018-04-01T01:01:24.860Z,1.93
2018-04-01T01:03:50.538Z,2.35
2018-04-01T01:06:17.717Z,3.27
2018-04-01T01:08:43.423Z,2.75
2018-04-01T01:11:11.992Z,3.67
2018-04-01T01:13:37.738Z,3.58
2018-04-01T01:16:03.428Z,3.77
2018-04-01T01:18:29.582Z,3.90
2018-04-01T01:20:55.282Z,3.92
2018-04-01T01:25:51.656Z,4.12
2018-04-01T01:28:20.604Z,3.47
2018-04-01T01:30:46.285Z,4.10
2018-04-01T01:33:13.631Z,4.57
2018-04-01T01:35:39.394Z,4.87
2018-04-01T01:40:35.915Z,4.60
2018-04-01T01:43:02.856Z,4.37
2018-04-01T01:45:28.545Z,4.00
2018-04-01T01:50:24.936Z,4.10
2018-04-01T01:52:53.975Z,3.80
2018-04-01T01:55:19.718Z,4.43
2018-04-01T01:57:47.285Z,3.90
2018-04-01T02:00:13.016Z,3.45
2018-04-01T02:02:41.808Z,3.27
2018-04-01T02:05:07.539Z,3.60
2018-04-01T02:07:35.385Z,2.93
2018-04-01T02:10:01.660Z,3.03
2018-04-01T02:12:27.370Z,2.60
2018-04-01T02:14:53.560Z,3.53
2018-04-01T02:17:19.277Z,3.05
2018-04-01T02:22:15.674Z,3.17
2018-04-01T02:24:43.401Z,2.23
2018-04-01T02:27:09.148Z,1.83
2018-04-01T02:29:37.876Z,1.37
2018-04-01T02:32:03.629Z,1.92
2018-04-01T02:34:32.903Z,1.70
2018-04-01T02:36:58.632Z,1.95
2018-04-01T02:39:27.371Z,1.50
2018-04-01T02:41:53.101Z,1.02
2018-04-01T02:44:21.756Z,1.30
2018-04-01T02:46:47.456Z,1.55
2018-04-01T02:49:13.181Z,1.00
2018-04-01T02:51:38.910Z,1.30
2018-04-01T02:54:04.624Z,1.03
2018-04-01T02:56:32.348Z,1.17
2018-04-01T02:58:58.088Z,0.90
2018-04-01T03:01:23.769Z,1.00
2018-04-01T03:03:50.535Z,1.23
2018-04-01T03:06:16.236Z,1.30
2018-04-01T03:13:45.032Z,1.20
2018-04-01T03:16:14.140Z,1.33
2018-04-01T03:18:39.828Z,1.35
2018-04-01T03:21:07.175Z,1.47
2018-04-01T03:23:32.878Z,1.45
2018-04-01T03:25:58.604Z,1.87
2018-04-01T03:28:24.333Z,2.37
2018-04-01T03:30:50.010Z,1.83
2018-04-01T03:33:18.503Z,1.60
2018-04-01T03:35:44.230Z,1.95
2018-04-01T03:38:09.949Z,2.40
2018-04-01T03:40:36.388Z,1.73
2018-04-01T03:43:02.137Z,2.30
2018-04-01T03:45:31.528Z,2.70
2018-04-01T03:47:57.224Z,3.15
2018-04-01T03:50:25.807Z,3.17
2018-04-01T03:52:51.524Z,3.00
2018-04-01T03:55:20.731Z,3.13
2018-04-01T03:57:46.424Z,3.58
2018-04-01T04:00:15.825Z,3.70
2018-04-01T04:02:41.556Z,3.60
2018-04-01T04:05:11.292Z,4.30
2018-04-01T04:07:37.052Z,4.10
2018-04-01T04:10:04.488Z,3.83
2018-04-01T04:12:30.194Z,3.03
2018-04-01T04:14:59.644Z,3.83
2018-04-01T04:17:25.371Z,3.30
2018-04-01T04:19:53.803Z,3.37
2018-04-01T04:22:19.506Z,3.45
2018-04-01T04:24:48.590Z,3.80
2018-04-01T04:27:14.310Z,3.60
2018-04-01T04:29:43.442Z,4.10
2018-04-01T04:32:09.191Z,4.05
2018-04-01T04:34:37.841Z,4.40
2018-04-01T04:37:03.552Z,4.43
2018-04-01T04:39:29.299Z,4.60
2018-04-01T04:41:54.994Z,5.53
2018-04-01T04:44:20.732Z,4.27
2018-04-01T04:46:49.668Z,5.10
2018-04-01T04:49:15.365Z,4.75
2018-04-01T04:51:44.623Z,4.50
2018-04-01T04:54:10.341Z,5.22
2018-04-01T04:56:38.859Z,5.13
2018-04-01T04:59:04.573Z,5.22
2018-04-01T05:01:32.437Z,4.20
2018-04-01T05:03:58.800Z,4.82
2018-04-01T05:06:24.523Z,4.07
2018-04-01T05:08:51.401Z,4.10
2018-04-01T05:11:17.136Z,4.28
2018-04-01T05:13:46.423Z,3.67
2018-04-01T05:16:12.128Z,5.30
2018-04-01T05:18:40.501Z,4.50
2018-04-01T05:21:06.236Z,5.20
2018-04-01T05:23:35.730Z,4.50
2018-04-01T05:26:01.460Z,4.45
2018-04-01T05:28:31.072Z,5.80
2018-04-01T05:30:56.787Z,4.97
2018-04-01T05:33:24.414Z,4.90
2018-04-01T05:35:50.135Z,3.80
2018-04-01T05:40:46.426Z,4.20
2018-04-01T05:43:13.564Z,4.50
2018-04-01T05:45:39.280Z,3.87
2018-04-01T05:50:35.587Z,3.85
2018-04-01T05:53:01.325Z,4.03
2018-04-01T05:55:27.103Z,3.37
2018-04-01T05:57:52.838Z,3.70
2018-04-01T06:00:21.656Z,3.83
2018-04-01T06:02:47.379Z,3.67
2018-04-01T06:05:14.702Z,3.30
2018-04-01T06:07:40.447Z,3.00
2018-04-01T06:12:36.819Z,4.12
2018-04-01T06:15:04.692Z,3.63
2018-04-01T06:17:30.370Z,4.70
2018-04-01T06:19:58.912Z,5.57
2018-04-01T06:22:24.626Z,3.75
2018-04-01T06:24:53.113Z,4.07
2018-04-01T06:27:18.811Z,4.15
2018-04-01T06:29:44.508Z,5.47
2018-04-01T06:32:10.532Z,3.03
2018-04-01T06:34:36.220Z,4.57
2018-04-01T06:37:04.054Z,2.63
2018-04-01T06:39:29.779Z,3.20
2018-04-01T06:41:55.489Z,3.37
2018-04-01T06:44:22.435Z,3.40
2018-04-01T06:46:48.165Z,3.72
2018-04-01T06:51:44.652Z,3.12
2018-04-01T06:54:11.959Z,2.63
2018-04-01T06:56:37.687Z,3.60
2018-04-01T06:59:07.021Z,3.43
2018-04-01T07:01:32.754Z,2.83
2018-04-01T07:04:01.815Z,4.57
2018-04-01T07:06:27.567Z,4.10
2018-04-01T07:08:57.082Z,3.50
2018-04-01T07:11:22.802Z,3.40
2018-04-01T07:13:52.122Z,4.37
2018-04-01T07:16:17.821Z,4.85
2018-04-01T07:18:47.089Z,3.97
2018-04-01T07:21:12.803Z,5.10
2018-04-01T07:23:42.049Z,3.93
2018-04-01T07:26:07.713Z,4.50
2018-04-01T07:28:34.900Z,3.60
2018-04-01T07:31:00.596Z,3.35
2018-04-01T07:35:57.091Z,10.20
2018-04-01T07:38:25.805Z,6.00
2018-04-01T07:40:51.544Z,2.72
2018-04-01T07:43:17.230Z,3.40
2018-04-01T07:45:42.936Z,2.27
2018-04-01T07:48:08.632Z,2.70
2018-04-01T07:50:37.680Z,4.30
2018-04-01T07:53:03.454Z,3.40
2018-04-01T07:55:30.625Z,2.97
2018-04-01T07:57:56.323Z,16.10
2018-04-01T08:00:24.117Z,2.90
2018-04-01T08:02:49.789Z,2.95
2018-04-01T08:05:15.490Z,2.63
2018-04-01T08:07:42.305Z,3.20
2018-04-01T08:10:08.016Z,3.12
2018-04-01T08:12:36.562Z,3.50
2018-04-01T08:15:02.271Z,3.12
2018-04-01T08:17:28.006Z,2.37
2018-04-01T08:19:54.337Z,3.50
2018-04-01T08:22:20.042Z,2.05
2018-04-01T08:24:48.475Z,3.33
2018-04-01T08:27:14.190Z,3.70
2018-04-01T08:29:43.337Z,3.93
2018-04-01T08:32:09.026Z,3.65
2018-04-01T08:34:37.588Z,2.83
2018-04-01T08:37:03.277Z,3.35
2018-04-01T08:39:29.005Z,3.70
2018-04-01T08:41:54.695Z,3.40
2018-04-01T08:44:20.377Z,2.80
2018-04-01T08:46:46.123Z,3.30
2018-04-01T08:49:11.846Z,3.10
2018-04-01T08:51:37.545Z,3.30
2018-04-01T08:54:03.234Z,3.83
2018-04-01T08:56:28.964Z,3.27
2018-04-01T08:58:54.654Z,3.07
2018-04-01T09:01:20.378Z,3.10
2018-04-01T09:03:46.096Z,3.70
2018-04-01T09:06:11.804Z,3.10
2018-04-01T09:08:37.509Z,2.83
2018-04-01T09:11:03.237Z,2.60
2018-04-01T09:13:28.924Z,2.97
2018-04-01T09:15:54.658Z,3.30
2018-04-01T09:18:20.353Z,2.77
2018-04-01T09:20:46.077Z,3.13
2018-04-01T09:23:11.834Z,2.50
2018-04-01T09:25:37.520Z,2.70
2018-04-01T09:28:03.226Z,2.13
2018-04-01T09:30:28.927Z,2.90
2018-04-01T09:32:54.599Z,2.43
2018-04-01T09:35:20.322Z,2.57
2018-04-01T09:37:46.021Z,2.60
2018-04-01T09:40:11.740Z,2.57
2018-04-01T09:42:37.453Z,2.37
2018-04-01T09:45:03.198Z,2.10
2018-04-01T09:47:28.916Z,3.50
2018-04-01T09:49:54.632Z,3.27
2018-04-01T09:52:20.338Z,3.03
2018-04-01T09:54:46.002Z,2.73
2018-04-01T09:57:11.727Z,2.60
2018-04-01T09:59:37.415Z,2.30
2018-04-01T10:02:03.307Z,2.80
2018-04-01T10:04:29.201Z,3.17
2018-04-01T10:06:55.043Z,2.63
2018-04-01T10:09:20.920Z,2.50
2018-04-01T10:11:46.792Z,3.07
2018-04-01T10:14:12.618Z,2.80
2018-04-01T10:16:38.545Z,3.27
2018-04-01T10:19:04.411Z,2.40
2018-04-01T10:21:30.270Z,3.03
2018-04-01T10:23:56.139Z,2.80
2018-04-01T10:26:22.019Z,2.70
2018-04-01T10:28:47.922Z,2.67
2018-04-01T10:31:13.832Z,2.20
2018-04-01T10:33:39.690Z,2.43
2018-04-01T10:36:05.593Z,2.70
2018-04-01T10:38:31.489Z,2.73
2018-04-01T10:40:57.360Z,2.70
2018-04-01T10:43:23.236Z,2.40
2018-04-01T10:45:49.103Z,1.80
2018-04-01T10:48:16.683Z,7.77
2018-04-01T10:50:42.574Z,3.10
2018-04-01T10:53:11.482Z,4.30
2018-04-01T10:55:37.235Z,4.30
2018-04-01T10:58:05.549Z,4.03
2018-04-01T11:00:31.263Z,3.22
2018-04-01T11:02:56.986Z,3.83
2018-04-01T11:05:23.879Z,4.10
2018-04-01T11:07:49.588Z,4.50
2018-04-01T11:10:18.724Z,4.30
2018-04-01T11:12:44.439Z,4.37
2018-04-01T11:15:12.480Z,4.87
2018-04-01T11:17:38.207Z,5.45
2018-04-01T11:20:06.708Z,4.23
2018-04-01T11:22:32.433Z,4.93
2018-04-01T11:24:58.188Z,5.97
2018-04-01T11:27:23.890Z,6.00
2018-04-01T11:29:49.580Z,6.23
2018-04-01T11:32:15.271Z,5.77
2018-04-01T11:34:40.990Z,6.30
2018-04-01T11:37:06.689Z,9.30
2018-04-01T11:39:32.401Z,6.93
2018-04-01T11:41:58.097Z,6.77
2018-04-01T11:44:23.803Z,7.47
2018-04-01T11:46:49.527Z,7.93
2018-04-01T11:49:15.231Z,9.40
2018-04-01T11:51:40.927Z,8.10
2018-04-01T11:54:06.629Z,7.00
2018-04-01T11:56:32.323Z,8.37
2018-04-01T11:58:58.055Z,7.47
2018-04-01T12:01:23.771Z,6.87
2018-04-01T12:03:49.468Z,8.03
2018-04-01T12:06:15.175Z,8.17
2018-04-01T12:08:40.867Z,7.53
2018-04-01T12:11:06.604Z,8.53
2018-04-01T12:13:32.290Z,7.73
2018-04-01T12:15:57.991Z,7.27
2018-04-01T12:18:23.747Z,7.17
2018-04-01T12:20:49.427Z,7.70
2018-04-01T12:23:15.159Z,6.30
2018-04-01T12:25:40.830Z,6.60
2018-04-01T12:28:06.530Z,7.40
2018-04-01T12:30:32.222Z,6.53
2018-04-01T12:32:57.961Z,6.50
2018-04-01T12:35:23.703Z,5.67
2018-04-01T12:37:49.404Z,8.30
2018-04-01T12:40:15.085Z,8.30
2018-04-01T12:42:40.820Z,7.90
2018-04-01T12:45:06.509Z,7.20
2018-04-01T12:47:32.199Z,6.97
2018-04-01T12:49:57.992Z,7.33
2018-04-01T12:52:23.640Z,9.40
2018-04-01T12:54:49.306Z,8.50
2018-04-01T12:57:15.026Z,6.40
2018-04-01T12:59:40.760Z,7.37
2018-04-01T13:02:06.498Z,7.87
2018-04-01T13:04:32.167Z,7.67
2018-04-01T13:06:57.871Z,8.20
2018-04-01T13:09:23.589Z,7.23
2018-04-01T13:11:49.303Z,5.30
2018-04-01T13:14:15.031Z,8.43
2018-04-01T13:16:40.714Z,5.20
2018-04-01T13:19:06.431Z,5.53
2018-04-01T13:21:32.134Z,4.90
2018-04-01T13:23:57.841Z,4.63
2018-04-01T13:26:23.544Z,5.53
2018-04-01T13:28:49.254Z,5.73
2018-04-01T13:31:14.972Z,4.80
2018-04-01T13:33:40.679Z,5.70
2018-04-01T13:36:09.617Z,4.93
2018-04-01T13:41:16.338Z,5.53
2018-04-01T13:43:42.057Z,4.83
2018-04-01T13:46:07.760Z,5.40
2018-04-01T13:48:33.496Z,4.80
2018-04-01T13:50:59.222Z,5.73
2018-04-01T13:53:24.920Z,5.90
2018-04-01T13:55:50.654Z,6.10
2018-04-01T13:58:16.362Z,5.27
2018-04-01T14:00:42.052Z,5.83
2018-04-01T14:03:07.850Z,6.13
2018-04-01T14:05:33.523Z,5.17
2018-04-01T14:07:59.207Z,6.10
2018-04-01T14:10:24.917Z,6.20
2018-04-01T14:12:53.837Z,7.10
2018-04-01T14:15:19.567Z,7.87
2018-04-01T14:17:47.803Z,6.10
2018-04-01T14:20:13.552Z,7.37
2018-04-01T14:25:10.102Z,6.32
2018-04-01T14:27:35.809Z,6.07
2018-04-01T14:30:01.490Z,6.80
2018-04-01T14:32:27.175Z,6.20
2018-04-01T14:34:54.080Z,5.80
2018-04-01T14:37:19.795Z,5.62
2018-04-01T14:39:47.635Z,5.67
2018-04-01T14:42:13.345Z,5.97
2018-04-01T14:44:39.055Z,5.47
2018-04-01T14:47:05.632Z,5.00
2018-04-01T14:49:31.353Z,4.95
2018-04-01T14:54:27.756Z,5.40
2018-04-01T14:56:55.260Z,5.97
2018-04-01T14:59:20.988Z,5.30
2018-04-01T15:01:49.570Z,5.10
2018-04-01T15:04:15.295Z,4.78
2018-04-01T15:06:41.023Z,4.73
2018-04-01T15:09:06.790Z,5.57
2018-04-01T15:11:32.485Z,5.10
2018-04-01T15:13:58.196Z,5.80
2018-04-01T15:16:23.908Z,4.77
2018-04-01T15:18:49.622Z,4.60
2018-04-01T15:21:15.310Z,5.00
2018-04-01T15:23:41.005Z,6.00
2018-04-01T15:26:06.735Z,6.10
2018-04-01T15:28:32.427Z,4.93
2018-04-01T15:30:58.125Z,5.40
2018-04-01T15:33:23.884Z,4.70
2018-04-01T15:35:49.563Z,5.87
2018-04-01T15:38:15.268Z,5.50
2018-04-01T15:40:40.992Z,5.17
2018-04-01T15:43:06.743Z,4.37
2018-04-01T15:45:32.449Z,4.73
2018-04-01T15:47:58.177Z,5.03
2018-04-01T15:50:23.857Z,5.50
2018-04-01T15:52:49.559Z,5.27
2018-04-01T15:55:15.222Z,4.77
2018-04-01T15:57:40.929Z,4.80
2018-04-01T16:00:06.664Z,4.53
2018-04-01T16:02:32.351Z,4.70
2018-04-01T16:04:58.053Z,4.10
2018-04-01T16:07:23.775Z,4.57
2018-04-01T16:09:49.479Z,4.47
2018-04-01T16:12:15.232Z,4.97
2018-04-01T16:14:41.263Z,5.10
2018-04-01T16:17:06.976Z,5.03
2018-04-01T16:19:32.692Z,4.57
2018-04-01T16:21:58.365Z,5.47
2018-04-01T16:24:24.063Z,5.10
2018-04-01T16:26:49.754Z,4.97
2018-04-01T16:29:15.461Z,5.10
2018-04-01T16:31:41.134Z,6.20
2018-04-01T16:34:06.834Z,5.13
2018-04-01T16:36:32.546Z,5.57
2018-04-01T16:38:58.240Z,5.00
2018-04-01T16:41:23.955Z,5.90
2018-04-01T16:43:49.672Z,5.40
2018-04-01T16:46:15.427Z,5.50
2018-04-01T16:48:41.099Z,6.53
2018-04-01T16:51:06.816Z,5.70
2018-04-01T16:53:32.500Z,7.00
2018-04-01T16:55:58.192Z,5.93
2018-04-01T16:58:23.900Z,5.50
2018-04-01T17:00:49.628Z,7.27
2018-04-01T17:03:15.326Z,5.40
2018-04-01T17:05:41.084Z,6.70
2018-04-01T17:08:06.787Z,6.40
2018-04-01T17:10:33.743Z,6.30
2018-04-01T17:12:59.460Z,5.87
2018-04-01T17:15:25.151Z,5.77
2018-04-01T17:17:50.861Z,6.30
2018-04-01T17:20:16.541Z,7.27
2018-04-01T17:22:45.691Z,7.70
2018-04-01T17:25:11.407Z,7.87
2018-04-01T17:27:40.067Z,8.40
2018-04-01T17:30:05.755Z,8.05
2018-04-01T17:32:34.242Z,7.90
2018-04-01T17:34:59.927Z,5.20
2018-04-01T17:37:25.604Z,5.10
2018-04-01T17:39:52.132Z,5.80
2018-04-01T17:42:17.829Z,6.25
2018-04-01T17:44:46.354Z,6.53
2018-04-01T17:47:12.084Z,5.32
2018-04-01T17:49:40.000Z,8.50
2018-04-01T17:52:05.856Z,7.57
2018-04-01T17:54:31.571Z,9.30
2018-04-01T17:56:57.779Z,6.53
2018-04-01T17:59:23.470Z,6.50
2018-04-01T18:01:49.183Z,8.10
2018-04-01T18:04:14.912Z,7.23
2018-04-01T18:06:40.634Z,7.47
2018-04-01T18:09:06.314Z,13.40
2018-04-01T18:11:33.451Z,15.63
2018-04-01T18:13:59.233Z,15.95
2018-04-01T18:16:24.927Z,12.87
2018-04-01T18:18:50.651Z,11.20
2018-04-01T18:21:16.385Z,12.30
2018-04-01T18:23:42.057Z,9.10
2018-04-01T18:26:07.768Z,12.77
2018-04-01T18:28:33.508Z,11.90
2018-04-01T18:30:59.206Z,11.47
2018-04-01T18:33:24.923Z,9.00
2018-04-01T18:35:50.652Z,8.17
2018-04-01T18:38:16.384Z,7.87
2018-04-01T18:40:42.071Z,8.90
2018-04-01T18:43:07.780Z,10.00
2018-04-01T18:45:33.526Z,10.43
2018-04-01T18:47:59.210Z,9.30
2018-04-01T18:50:24.909Z,12.10
2018-04-01T18:52:50.635Z,9.80
2018-04-01T18:55:16.326Z,11.17
2018-04-01T18:57:42.042Z,9.73
2018-04-01T19:00:07.764Z,9.03
2018-04-01T19:02:33.475Z,9.13
2018-04-01T19:04:59.186Z,11.20
2018-04-01T19:07:24.880Z,8.27
2018-04-01T19:09:50.575Z,11.77
2018-04-01T19:12:16.254Z,14.13
2018-04-01T19:14:42.977Z,12.30
2018-04-01T19:17:08.865Z,9.27
2018-04-01T19:19:34.715Z,9.67
2018-04-01T19:22:00.636Z,9.17
2018-04-01T19:24:26.511Z,11.17
2018-04-01T19:26:52.407Z,9.00
2018-04-01T19:29:18.297Z,10.03
2018-04-01T19:31:44.156Z,11.13
2018-04-01T19:34:10.097Z,9.07
2018-04-01T19:36:35.973Z,8.63
2018-04-01T19:39:01.845Z,9.30
2018-04-01T19:41:27.709Z,9.07
2018-04-01T19:43:53.628Z,10.43
2018-04-01T19:46:19.512Z,9.93
2018-04-01T19:48:45.349Z,10.20
2018-04-01T19:51:11.240Z,10.97
2018-04-01T19:53:37.082Z,11.03
2018-04-01T19:56:03.019Z,10.73
2018-04-01T19:58:28.870Z,10.20
2018-04-01T20:00:54.734Z,10.47
2018-04-01T20:03:20.649Z,12.03
2018-04-01T20:05:46.505Z,10.63
2018-04-01T20:08:12.371Z,10.47
2018-04-01T20:10:38.289Z,10.70
2018-04-01T20:13:04.185Z,10.17
2018-04-01T20:15:31.511Z,11.53
2018-04-01T20:17:57.390Z,11.85
2018-04-01T20:20:26.767Z,12.50
2018-04-01T20:22:52.671Z,12.15
2018-04-01T20:25:21.829Z,11.37
2018-04-01T20:27:47.719Z,12.73
2018-04-01T20:30:16.784Z,13.10
2018-04-01T20:32:42.648Z,13.35
2018-04-01T20:35:08.560Z,13.40
2018-04-01T20:37:34.441Z,19.27
2018-04-01T20:40:00.281Z,14.87
2018-04-01T20:42:27.520Z,13.93
2018-04-01T20:44:53.395Z,18.27
2018-04-01T20:47:22.347Z,15.63
2018-04-01T20:49:48.251Z,13.85
2018-04-01T20:52:17.433Z,12.60
2018-04-01T20:54:43.315Z,12.48
2018-04-01T20:57:12.296Z,12.93
2018-04-01T20:59:38.153Z,12.10
2018-04-01T21:02:07.161Z,13.40
2018-04-01T21:04:33.062Z,11.70
2018-04-01T21:07:01.196Z,13.20
2018-04-01T21:09:27.136Z,12.30
2018-04-01T21:11:53.000Z,11.90
2018-04-01T21:14:18.887Z,11.73
2018-04-01T21:16:44.752Z,12.10
2018-04-01T21:19:13.730Z,12.03
2018-04-01T21:21:39.558Z,12.65
2018-04-01T21:24:07.374Z,13.63
2018-04-01T21:26:33.285Z,13.27
2018-04-01T21:29:02.245Z,12.83
2018-04-01T21:31:28.127Z,11.73
2018-04-01T21:33:57.451Z,13.73
2018-04-01T21:36:23.343Z,12.35
2018-04-01T21:38:52.308Z,11.70
2018-04-01T21:41:18.167Z,12.32
2018-04-01T21:43:45.992Z,12.23
2018-04-01T21:46:11.896Z,12.93
2018-04-01T21:48:37.780Z,13.47
2018-04-01T21:51:03.634Z,13.47
2018-04-01T21:53:29.523Z,13.00
2018-04-01T21:55:58.527Z,12.60
2018-04-01T21:58:24.399Z,12.50
2018-04-01T22:00:53.516Z,14.87
2018-04-01T22:03:19.373Z,13.27
2018-04-01T22:05:47.547Z,15.10
2018-04-01T22:08:13.444Z,14.20
2018-04-01T22:10:42.862Z,11.77
2018-04-01T22:13:08.760Z,14.10
2018-04-01T22:15:38.457Z,19.13
2018-04-01T22:18:04.336Z,12.25
2018-04-01T22:20:31.659Z,12.40
2018-04-01T22:23:08.814Z,11.55
2018-04-01T22:25:34.670Z,10.77
2018-04-01T22:28:00.498Z,11.50
2018-04-01T22:30:26.327Z,11.73
2018-04-01T22:32:52.215Z,13.03
2018-04-01T22:35:18.086Z,12.63
2018-04-01T22:37:43.963Z,12.70
2018-04-01T22:40:09.819Z,12.87
2018-04-01T22:42:35.734Z,11.57
2018-04-01T22:45:01.592Z,13.20
2018-04-01T22:47:27.514Z,11.40
2018-04-01T22:49:53.409Z,11.70
2018-04-01T22:52:22.827Z,11.60
2018-04-01T22:54:48.696Z,10.52
2018-04-01T22:57:17.752Z,11.83
2018-04-01T22:59:43.615Z,10.52
2018-04-01T23:02:09.468Z,10.87
2018-04-01T23:04:35.339Z,11.30
2018-04-01T23:07:01.191Z,11.70
2018-04-01T23:09:28.829Z,12.00
2018-04-01T23:11:54.726Z,13.40
2018-04-01T23:14:23.787Z,13.60
2018-04-01T23:16:49.631Z,11.82
2018-04-01T23:19:18.787Z,11.03
2018-04-01T23:21:44.695Z,12.75
2018-04-01T23:24:13.627Z,13.07
2018-04-01T23:26:39.522Z,11.38
2018-04-01T23:29:08.836Z,12.73
2018-04-01T23:31:34.704Z,11.18
2018-04-01T23:34:03.694Z,11.80
2018-04-01T23:36:29.561Z,11.20
2018-04-01T23:38:55.459Z,10.10
2018-04-01T23:41:21.290Z,11.10
2018-04-01T23:43:47.192Z,11.03
2018-04-01T23:46:13.600Z,11.27
2018-04-01T23:48:39.490Z,11.48
2018-04-01T23:51:08.272Z,12.03
2018-04-01T23:53:34.123Z,11.85
2018-04-01T23:56:02.960Z,11.80
2018-04-01T23:58:28.853Z,10.65
